createdAt,value
2019-02-10T00:01:41.016Z,77.10
2019-02-10T00:04:13.676Z,77.80
2019-02-10T00:06:46.183Z,78.30
2019-02-10T00:09:18.370Z,78.50
2019-02-10T00:11:51.028Z,79.30
2019-02-10T00:14:23.391Z,78.00
2019-02-10T00:16:55.916Z,78.90
2019-02-10T00:19:28.020Z,79.10
2019-02-10T00:22:00.365Z,77.90
2019-02-10T00:24:32.662Z,77.30
2019-02-10T00:27:05.544Z,76.90
2019-02-10T00:29:37.829Z,76.90
2019-02-10T00:32:10.406Z,77.20
2019-02-10T00:34:42.915Z,78.60
2019-02-10T00:37:27.909Z,78.30
2019-02-10T00:40:00.474Z,77.30
2019-02-10T00:42:34.559Z,76.70
2019-02-10T00:45:08.092Z,73.00
2019-02-10T00:47:40.599Z,67.50
2019-02-10T00:50:13.045Z,65.60
2019-02-10T00:52:45.569Z,65.70
2019-02-10T00:55:17.992Z,65.60
2019-02-10T00:57:50.671Z,66.40
2019-02-10T01:00:23.202Z,65.00
2019-02-10T01:02:55.624Z,67.20
2019-02-10T01:05:27.786Z,66.40
2019-02-10T01:08:00.138Z,64.10
2019-02-10T01:10:32.853Z,63.70
2019-02-10T01:13:05.578Z,62.80
2019-02-10T01:15:38.140Z,62.70
2019-02-10T01:18:10.478Z,62.40
2019-02-10T01:20:43.030Z,59.70
2019-02-10T01:23:15.632Z,59.10
2019-02-10T01:25:48.083Z,59.10
2019-02-10T01:28:20.687Z,58.90
2019-02-10T02:15:31.402Z,47.30
2019-02-10T02:18:03.840Z,45.60
2019-02-10T02:20:36.682Z,45.90
2019-02-10T02:23:08.985Z,43.10
2019-02-10T02:25:41.331Z,43.70
2019-02-10T02:28:14.103Z,44.30
2019-02-10T02:30:46.617Z,43.20
2019-02-10T02:33:18.931Z,43.30
2019-02-10T02:35:51.575Z,41.30
2019-02-10T02:38:23.884Z,40.20
2019-02-10T02:40:56.429Z,39.70
2019-02-10T02:57:01.724Z,38.40
2019-02-10T02:59:34.245Z,37.70
2019-02-10T03:02:06.676Z,39.30
2019-02-10T03:04:39.106Z,39.20
2019-02-10T03:07:17.726Z,39.90
2019-02-10T03:09:45.122Z,40.50
2019-02-10T03:12:17.482Z,39.80
2019-02-10T03:14:49.874Z,39.30
2019-02-10T03:17:22.077Z,37.40
2019-02-10T03:19:54.377Z,38.00
2019-02-10T03:22:27.089Z,36.20
2019-02-10T03:24:59.671Z,37.50
2019-02-10T03:27:32.077Z,35.90
2019-02-10T03:30:04.535Z,37.50
2019-02-10T03:32:36.744Z,37.60
2019-02-10T03:35:11.151Z,35.90
2019-02-10T03:37:44.337Z,36.50
2019-02-10T03:40:16.668Z,36.80
2019-02-10T03:42:49.060Z,34.30
2019-02-10T03:45:21.290Z,34.90
2019-02-10T03:47:53.815Z,33.10
2019-02-10T03:50:26.463Z,33.10
2019-02-10T03:52:58.940Z,34.00
2019-02-10T03:55:32.130Z,33.40
2019-02-10T03:58:04.593Z,34.20
2019-02-10T04:00:37.031Z,34.20
2019-02-10T04:03:09.235Z,35.60
2019-02-10T04:05:41.655Z,35.30
2019-02-10T04:08:14.176Z,33.80
2019-02-10T04:10:46.574Z,35.30
2019-02-10T04:13:19.094Z,35.20
2019-02-10T04:15:51.352Z,33.30
2019-02-10T04:18:23.566Z,33.00
2019-02-10T04:20:58.946Z,32.20
2019-02-10T04:23:31.157Z,31.90
2019-02-10T04:26:03.507Z,33.30
2019-02-10T04:28:35.689Z,32.40
2019-02-10T04:31:08.100Z,31.80
2019-02-10T04:33:40.520Z,33.30
2019-02-10T04:36:13.668Z,33.00
2019-02-10T04:38:48.303Z,33.00
2019-02-10T04:41:20.741Z,33.60
2019-02-10T04:43:53.404Z,34.30
2019-02-10T04:46:25.975Z,34.10
2019-02-10T04:48:59.434Z,34.50
2019-02-10T04:51:33.258Z,33.00
2019-02-10T04:54:05.642Z,32.40
2019-02-10T04:56:50.883Z,32.90
2019-02-10T04:59:23.827Z,34.20
2019-02-10T05:01:56.036Z,35.10
2019-02-10T05:04:28.724Z,34.80
2019-02-10T05:07:02.234Z,34.80
2019-02-10T05:09:55.068Z,34.90
2019-02-10T05:12:27.642Z,34.30
2019-02-10T05:14:59.983Z,35.50
2019-02-10T05:17:32.737Z,34.50
2019-02-10T05:20:06.105Z,33.60
2019-02-10T05:22:39.449Z,33.90
2019-02-10T05:25:11.929Z,34.30
2019-02-10T05:59:36.116Z,33.40
2019-02-10T06:02:10.643Z,34.00
2019-02-10T06:08:00.271Z,34.30
2019-02-10T06:10:32.704Z,34.70
2019-02-10T06:13:05.120Z,34.70
2019-02-10T06:15:38.234Z,34.30
2019-02-10T06:18:10.752Z,33.60
2019-02-10T06:20:42.976Z,34.50
2019-02-10T06:23:15.450Z,34.70
2019-02-10T06:25:47.830Z,34.30
2019-02-10T06:28:20.159Z,34.30
2019-02-10T06:30:52.522Z,33.40
2019-02-10T06:33:25.090Z,32.50
2019-02-10T06:35:57.880Z,32.60
2019-02-10T06:38:30.146Z,33.30
2019-02-10T06:41:02.780Z,33.40
2019-02-10T06:43:34.990Z,33.40
2019-02-10T06:46:07.418Z,31.90
2019-02-10T06:48:39.723Z,32.30
2019-02-10T06:51:12.153Z,31.70
2019-02-10T06:53:44.555Z,31.20
2019-02-10T06:56:16.810Z,33.30
2019-02-10T06:58:49.189Z,32.30
2019-02-10T07:01:22.863Z,31.00
2019-02-10T07:03:59.067Z,31.60
2019-02-10T07:06:32.631Z,32.60
2019-02-10T07:09:05.477Z,31.50
2019-02-10T07:11:37.738Z,30.80
2019-02-10T07:14:13.283Z,31.30
2019-02-10T07:16:48.361Z,30.40
2019-02-10T07:19:22.923Z,30.00
2019-02-10T07:21:55.403Z,30.00
2019-02-10T07:24:30.598Z,29.30
2019-02-10T07:27:05.534Z,29.00
2019-02-10T07:29:40.115Z,30.20
2019-02-10T07:32:13.824Z,30.20
2019-02-10T07:34:49.003Z,29.20
2019-02-10T07:37:23.464Z,29.00
2019-02-10T07:39:58.049Z,29.00
2019-02-10T07:42:32.737Z,28.40
2019-02-10T07:45:08.116Z,28.40
2019-02-10T07:47:43.052Z,28.10
2019-02-10T07:50:18.692Z,29.20
2019-02-10T07:52:53.371Z,27.70
2019-02-10T07:55:28.667Z,28.40
2019-02-10T07:58:03.596Z,27.70
2019-02-10T08:00:38.633Z,27.10
2019-02-10T08:03:13.672Z,28.90
2019-02-10T08:05:48.701Z,26.20
2019-02-10T08:08:23.739Z,28.00
2019-02-10T08:10:58.488Z,29.20
2019-02-10T08:13:33.385Z,29.50
2019-02-10T08:16:08.842Z,29.50
2019-02-10T08:18:43.625Z,29.30
2019-02-10T08:21:18.322Z,30.60
2019-02-10T08:23:53.638Z,28.70
2019-02-10T08:26:28.780Z,28.50
2019-02-10T08:29:03.430Z,27.80
2019-02-10T08:31:38.524Z,27.80
2019-02-10T08:34:13.213Z,28.50
2019-02-10T08:36:47.754Z,27.80
2019-02-10T08:39:22.732Z,27.90
2019-02-10T08:41:58.168Z,27.70
2019-02-10T08:44:32.768Z,28.30
2019-02-10T08:47:07.934Z,27.20
2019-02-10T08:49:42.865Z,28.30
2019-02-10T08:52:17.897Z,27.40
2019-02-10T08:54:50.683Z,27.20
2019-02-10T08:57:23.465Z,28.10
2019-02-10T08:59:55.810Z,27.50
2019-02-10T09:02:28.131Z,27.50
2019-02-10T09:05:00.522Z,28.00
2019-02-10T09:07:33.076Z,27.50
2019-02-10T09:10:07.243Z,27.30
2019-02-10T09:12:39.814Z,27.00
2019-02-10T09:15:13.882Z,27.20
2019-02-10T09:17:46.444Z,27.20
2019-02-10T09:20:18.751Z,27.30
2019-02-10T09:22:51.201Z,26.90
2019-02-10T09:25:23.517Z,27.30
2019-02-10T09:27:55.854Z,27.70
2019-02-10T09:30:28.065Z,27.80
2019-02-10T09:33:00.535Z,27.60
2019-02-10T09:35:32.749Z,27.80
2019-02-10T09:38:05.181Z,27.80
2019-02-10T09:40:37.393Z,28.10
2019-02-10T09:43:09.815Z,28.50
2019-02-10T09:45:42.100Z,28.70
2019-02-10T09:48:14.418Z,28.60
2019-02-10T09:50:46.929Z,28.40
2019-02-10T09:53:20.473Z,28.90
2019-02-10T09:55:52.787Z,28.50
2019-02-10T09:58:25.483Z,28.80
2019-02-10T10:00:57.684Z,29.40
2019-02-10T10:03:30.054Z,29.50
2019-02-10T10:06:02.422Z,29.90
2019-02-10T10:08:34.770Z,30.30
2019-02-10T10:11:08.010Z,30.00
2019-02-10T10:13:40.550Z,30.00
2019-02-10T10:16:12.968Z,30.60
2019-02-10T10:18:45.403Z,30.90
2019-02-10T10:21:18.261Z,31.50
2019-02-10T10:23:50.795Z,32.00
2019-02-10T10:26:23.123Z,32.20
2019-02-10T10:28:55.608Z,33.10
2019-02-10T10:31:27.817Z,33.00
2019-02-10T10:34:00.291Z,33.00
2019-02-10T10:36:32.645Z,34.50
2019-02-10T10:39:06.256Z,34.80
2019-02-10T10:41:38.587Z,36.00
2019-02-10T10:44:10.898Z,36.90
2019-02-10T10:46:43.428Z,36.60
2019-02-10T10:49:15.977Z,37.50
2019-02-10T10:51:48.207Z,37.70
2019-02-10T10:54:20.848Z,36.90
2019-02-10T10:56:53.232Z,38.30
2019-02-10T10:59:25.577Z,37.70
2019-02-10T11:01:57.871Z,38.80
2019-02-10T11:04:31.104Z,39.00
2019-02-10T11:07:03.538Z,39.60
2019-02-10T11:09:36.067Z,39.50
2019-02-10T11:12:08.533Z,40.40
2019-02-10T11:14:41.011Z,42.60
2019-02-10T11:17:14.892Z,42.40
2019-02-10T11:19:47.371Z,40.90
2019-02-10T11:22:19.733Z,41.20
2019-02-10T11:24:52.959Z,42.50
2019-02-10T11:27:25.638Z,41.90
2019-02-10T11:29:59.235Z,42.30
2019-02-10T11:32:32.102Z,43.20
2019-02-10T11:35:04.454Z,43.70
2019-02-10T11:37:37.586Z,43.40
2019-02-10T11:40:12.068Z,43.80
2019-02-10T11:42:44.660Z,43.90
2019-02-10T11:45:18.253Z,44.30
2019-02-10T11:47:50.470Z,44.00
2019-02-10T11:50:22.928Z,44.40
2019-02-10T11:52:56.074Z,45.20
2019-02-10T11:55:28.322Z,45.20
2019-02-10T11:58:00.999Z,45.20
2019-02-10T12:00:33.229Z,45.50
2019-02-10T12:03:05.582Z,45.50
2019-02-10T12:05:38.188Z,46.10
2019-02-10T12:08:11.486Z,46.60
2019-02-10T12:10:44.041Z,46.70
2019-02-10T12:13:16.626Z,47.00
2019-02-10T12:15:49.048Z,47.10
2019-02-10T12:18:21.415Z,47.20
2019-02-10T12:20:54.315Z,47.20
2019-02-10T12:23:26.755Z,47.70
2019-02-10T12:26:00.137Z,47.40
2019-02-10T12:28:32.689Z,48.50
2019-02-10T12:31:05.088Z,49.20
2019-02-10T12:33:37.422Z,50.00
2019-02-10T12:36:09.966Z,51.00
2019-02-10T12:38:42.280Z,52.00
2019-02-10T12:41:14.642Z,52.40
2019-02-10T12:43:47.052Z,53.50
2019-02-10T12:46:19.791Z,54.60
2019-02-10T12:48:52.004Z,55.00
2019-02-10T12:51:24.425Z,55.60
2019-02-10T12:53:56.803Z,56.80
2019-02-10T12:56:29.328Z,56.30
2019-02-10T12:59:01.671Z,56.60
2019-02-10T13:01:34.207Z,56.80
2019-02-10T13:04:06.680Z,57.20
2019-02-10T13:06:39.221Z,57.10
2019-02-10T13:09:11.665Z,57.30
2019-02-10T13:11:44.077Z,57.20
2019-02-10T13:14:16.549Z,57.60
2019-02-10T13:16:49.122Z,57.70
2019-02-10T13:19:21.261Z,58.00
2019-02-10T13:21:53.586Z,58.30
2019-02-10T13:24:25.806Z,58.60
2019-02-10T13:26:58.108Z,59.40
2019-02-10T13:29:30.445Z,59.80
2019-02-10T13:32:03.127Z,59.90
2019-02-10T13:34:35.403Z,59.90
2019-02-10T13:37:07.758Z,60.80
2019-02-10T13:39:39.989Z,60.50
2019-02-10T13:42:12.348Z,60.70
2019-02-10T13:44:44.899Z,61.70
2019-02-10T13:47:17.322Z,62.30
2019-02-10T13:49:50.587Z,62.60
2019-02-10T13:52:23.109Z,63.20
2019-02-10T13:54:55.429Z,64.30
2019-02-10T13:57:27.890Z,64.30
2019-02-10T14:00:00.286Z,64.20
2019-02-10T14:02:32.722Z,65.20
2019-02-10T14:05:05.329Z,65.00
2019-02-10T14:07:37.838Z,64.90
2019-02-10T14:10:13.070Z,65.20
2019-02-10T14:12:45.588Z,65.70
2019-02-10T14:15:19.007Z,65.00
2019-02-10T14:17:52.028Z,65.10
2019-02-10T14:20:24.404Z,65.30
2019-02-10T14:22:56.640Z,65.00
2019-02-10T14:25:29.252Z,64.90
2019-02-10T14:28:01.447Z,65.70
2019-02-10T14:30:34.140Z,65.50
2019-02-10T14:33:06.814Z,65.30
2019-02-10T14:35:39.641Z,65.70
2019-02-10T14:38:12.193Z,65.60
2019-02-10T14:40:44.639Z,66.00
2019-02-10T14:43:17.195Z,65.90
2019-02-10T14:45:49.729Z,65.90
2019-02-10T14:48:22.535Z,66.00
2019-02-10T14:50:55.181Z,66.00
2019-02-10T14:53:27.527Z,66.20
2019-02-10T14:56:00.225Z,66.30
2019-02-10T14:58:33.073Z,66.50
2019-02-10T15:01:05.364Z,66.60
2019-02-10T15:03:38.713Z,66.70
2019-02-10T15:06:11.390Z,66.90
2019-02-10T15:08:43.795Z,67.40
2019-02-10T15:11:16.549Z,67.20
2019-02-10T15:13:49.019Z,67.30
2019-02-10T15:16:22.126Z,67.60
2019-02-10T15:18:54.753Z,67.90
2019-02-10T15:21:27.434Z,68.20
2019-02-10T15:23:59.676Z,68.40
2019-02-10T15:26:32.421Z,68.40
2019-02-10T15:29:04.838Z,68.50
2019-02-10T15:31:37.262Z,68.50
2019-02-10T15:34:09.675Z,68.50
2019-02-10T15:36:42.009Z,69.50
2019-02-10T15:39:14.307Z,70.10
2019-02-10T15:41:46.815Z,70.30
2019-02-10T15:44:18.941Z,70.00
2019-02-10T15:46:51.498Z,69.50
2019-02-10T15:49:23.812Z,69.00
2019-02-10T15:51:56.316Z,69.90
2019-02-10T15:54:28.531Z,67.60
2019-02-10T15:57:01.298Z,69.20
2019-02-10T15:59:33.851Z,69.70
2019-02-10T16:02:06.500Z,68.50
2019-02-10T16:04:39.115Z,69.20
2019-02-10T16:07:11.507Z,69.50
2019-02-10T16:09:44.026Z,70.20
2019-02-10T16:12:16.252Z,70.30
2019-02-10T16:14:48.733Z,70.80
2019-02-10T16:17:21.405Z,71.70
2019-02-10T16:19:53.883Z,71.90
2019-02-10T16:22:26.354Z,71.00
2019-02-10T16:24:58.778Z,70.70
2019-02-10T16:27:31.036Z,71.70
2019-02-10T16:30:03.356Z,72.90
2019-02-10T16:32:35.681Z,73.30
2019-02-10T16:35:09.061Z,73.70
2019-02-10T16:37:41.355Z,73.90
2019-02-10T16:40:16.537Z,75.00
2019-02-10T16:42:49.001Z,74.90
2019-02-10T16:45:21.693Z,72.70
2019-02-10T16:47:53.976Z,73.20
2019-02-10T16:50:26.457Z,72.50
2019-02-10T16:52:58.852Z,72.20
2019-02-10T16:55:31.150Z,73.50
2019-02-10T16:58:03.428Z,73.00
2019-02-10T17:00:35.779Z,73.20
2019-02-10T17:03:08.165Z,72.40
2019-02-10T17:05:40.476Z,73.50
2019-02-10T17:08:13.022Z,72.60
2019-02-10T17:10:45.243Z,72.40
2019-02-10T17:13:18.156Z,72.80
2019-02-10T17:15:50.564Z,73.30
2019-02-10T17:18:23.169Z,73.60
2019-02-10T17:20:56.113Z,73.60
2019-02-10T17:23:28.724Z,73.60
2019-02-10T17:26:01.203Z,73.60
2019-02-10T17:28:33.676Z,74.40
2019-02-10T17:31:06.066Z,74.70
2019-02-10T17:33:39.945Z,75.40
2019-02-10T17:36:12.498Z,74.80
2019-02-10T17:38:44.793Z,74.60
2019-02-10T17:41:22.917Z,74.00
2019-02-10T17:43:53.519Z,73.70
2019-02-10T17:46:26.065Z,74.10
2019-02-10T17:48:59.108Z,74.30
2019-02-10T17:51:31.580Z,73.80
2019-02-10T17:54:03.906Z,74.50
2019-02-10T17:56:36.377Z,74.70
2019-02-10T17:59:08.589Z,75.10
2019-02-10T18:01:41.232Z,75.00
2019-02-10T18:04:13.468Z,74.60
2019-02-10T18:06:46.003Z,74.90
2019-02-10T18:09:18.286Z,75.40
2019-02-10T18:11:50.692Z,75.80
2019-02-10T18:14:24.361Z,76.10
2019-02-10T18:16:59.100Z,76.20
2019-02-10T18:19:32.898Z,76.80
2019-02-10T18:22:07.318Z,77.50
2019-02-10T18:24:41.181Z,77.50
2019-02-10T18:27:15.119Z,77.00
2019-02-10T18:29:48.623Z,76.60
2019-02-10T18:32:22.553Z,76.30
2019-02-10T18:34:56.364Z,77.10
2019-02-10T18:37:30.033Z,77.90
2019-02-10T18:40:03.769Z,78.30
2019-02-10T18:42:37.842Z,78.90
2019-02-10T18:45:11.714Z,78.50
2019-02-10T18:47:45.523Z,78.40
2019-02-10T18:50:19.123Z,77.70
2019-02-10T18:52:53.002Z,77.20
2019-02-10T18:55:26.578Z,77.10
2019-02-10T18:58:00.501Z,76.90
2019-02-10T19:00:34.071Z,77.00
2019-02-10T19:03:07.710Z,77.30
2019-02-10T19:05:41.619Z,78.10
2019-02-10T19:08:15.436Z,77.60
2019-02-10T19:10:50.055Z,77.90
2019-02-10T19:13:24.234Z,78.20
2019-02-10T19:15:57.714Z,78.20
2019-02-10T19:18:31.482Z,78.50
2019-02-10T19:21:05.798Z,78.90
2019-02-10T19:23:39.905Z,78.90
2019-02-10T19:26:13.750Z,79.20
2019-02-10T19:28:47.412Z,79.50
2019-02-10T19:31:21.013Z,79.50
2019-02-10T19:33:54.852Z,81.00
2019-02-10T19:36:28.337Z,80.30
2019-02-10T19:39:01.918Z,80.30
2019-02-10T19:41:36.755Z,81.00
2019-02-10T19:44:10.863Z,80.80
2019-02-10T19:46:46.002Z,81.10
2019-02-10T19:49:20.222Z,81.20
2019-02-10T19:51:54.015Z,81.50
2019-02-10T19:54:27.635Z,81.30
2019-02-10T19:57:01.180Z,81.10
2019-02-10T19:59:34.928Z,81.00
2019-02-10T20:02:11.788Z,80.60
2019-02-10T20:04:45.259Z,80.60
2019-02-10T20:07:20.399Z,80.60
2019-02-10T20:09:54.351Z,80.70
2019-02-10T20:12:28.259Z,81.10
2019-02-10T20:15:02.578Z,81.50
2019-02-10T20:17:36.391Z,81.90
2019-02-10T20:20:12.862Z,82.00
2019-02-10T20:22:46.526Z,82.10
2019-02-10T20:25:20.343Z,82.60
2019-02-10T20:27:54.269Z,83.00
2019-02-10T20:30:28.083Z,82.80
2019-02-10T20:33:01.703Z,83.00
2019-02-10T20:35:35.275Z,82.90
2019-02-10T20:38:09.283Z,83.30
2019-02-10T20:40:43.049Z,83.60
2019-02-10T20:43:17.316Z,83.50
2019-02-10T20:45:51.434Z,83.40
2019-02-10T20:48:25.118Z,83.40
2019-02-10T20:50:59.039Z,83.70
2019-02-10T20:53:32.820Z,83.80
2019-02-10T20:56:06.865Z,83.90
2019-02-10T20:58:41.176Z,84.10
2019-02-10T21:01:15.440Z,84.10
2019-02-10T21:03:49.032Z,84.60
2019-02-10T21:06:22.693Z,84.20
2019-02-10T21:08:56.551Z,84.60
2019-02-10T21:11:30.017Z,84.80
2019-02-10T21:14:03.581Z,84.80
2019-02-10T21:16:37.130Z,85.30
2019-02-10T21:19:10.793Z,85.60
2019-02-10T21:21:44.718Z,85.30
2019-02-10T21:24:18.717Z,85.20
2019-02-10T21:26:52.519Z,84.70
2019-02-10T21:29:26.872Z,84.60
2019-02-10T21:32:01.765Z,84.30
2019-02-10T21:34:36.714Z,83.90
2019-02-10T21:37:10.488Z,83.80
2019-02-10T21:39:44.367Z,83.70
2019-02-10T21:42:18.025Z,83.80
2019-02-10T21:44:51.738Z,83.50
2019-02-10T21:47:26.137Z,83.30
2019-02-10T21:49:58.462Z,82.90
2019-02-10T21:52:30.600Z,82.80
2019-02-10T21:55:03.405Z,82.50
2019-02-10T21:57:35.774Z,82.20
2019-02-10T22:00:10.991Z,82.00
2019-02-10T22:02:43.336Z,81.90
2019-02-10T22:05:16.025Z,82.20
2019-02-10T22:07:48.366Z,82.20
2019-02-10T22:10:20.637Z,82.00
2019-02-10T22:12:52.816Z,82.00
2019-02-10T22:15:25.494Z,81.90
2019-02-10T22:17:58.048Z,81.90
2019-02-10T22:20:30.354Z,81.70
2019-02-10T22:23:02.879Z,81.70
2019-02-10T22:25:35.180Z,82.30
2019-02-10T22:28:07.482Z,81.30
2019-02-10T22:30:40.391Z,81.40
2019-02-10T22:33:12.922Z,81.30
2019-02-10T22:35:45.314Z,81.10
2019-02-10T22:38:17.848Z,81.40
2019-02-10T22:40:50.422Z,81.30
2019-02-10T22:43:22.889Z,81.40
2019-02-10T22:45:55.208Z,81.60
2019-02-10T22:48:27.463Z,81.70
2019-02-10T22:51:00.387Z,81.60
2019-02-10T22:53:33.133Z,81.50
2019-02-10T22:56:05.380Z,81.30
2019-02-10T22:58:37.677Z,81.10
2019-02-10T23:01:10.649Z,80.70
2019-02-10T23:03:43.347Z,80.50
2019-02-10T23:06:15.746Z,79.90
2019-02-10T23:08:48.328Z,79.70
2019-02-10T23:11:20.743Z,78.80
2019-02-10T23:13:54.185Z,78.80
2019-02-10T23:16:27.086Z,78.10
2019-02-10T23:18:59.433Z,78.20
2019-02-10T23:21:31.746Z,77.80
2019-02-10T23:24:04.260Z,78.00
2019-02-10T23:26:36.574Z,77.80
2019-02-10T23:29:08.843Z,77.80
2019-02-10T23:31:41.243Z,77.90
2019-02-10T23:34:13.633Z,78.20
2019-02-10T23:36:45.814Z,78.30
2019-02-10T23:39:18.157Z,78.50
2019-02-10T23:41:50.571Z,78.70
2019-02-10T23:44:23.272Z,79.00
2019-02-10T23:46:55.695Z,79.20
2019-02-10T23:49:28.122Z,79.20
2019-02-10T23:52:00.580Z,79.10
2019-02-10T23:54:32.828Z,78.80
2019-02-10T23:57:05.151Z,78.50
2019-02-10T23:59:37.867Z,78.30
